Time,TemperatureF,DewpointF,PressureIn,WindDirection,WindDirectionDegrees,WindSpeedMPH,WindSpeedGustMPH,Humidity,HourlyPrecipIn,Conditions,Clouds,dailyrainin,SolarRadiationWatts/m^2,SoftwareType,DateUTC
2013-02-01 00:22:00,10.0,6.0,-100.00,NE,35,5.0,10.0,83,0.00,,,0.02,0.000000,,2013-02-01 07:22:00,
2013-02-01 00:32:00,10.0,6.0,-100.00,NE,35,5.0,10.0,83,0.00,,,0.02,0.000000,,2013-02-01 07:32:00,
2013-02-01 00:42:00,10.0,6.0,-100.00,NE,35,5.0,10.0,83,0.00,,,0.02,0.000000,,2013-02-01 07:42:00,
2013-02-01 00:51:00,10.0,6.0,-100.00,NE,35,5.0,10.0,83,0.00,,,0.02,0.000000,,2013-02-01 07:51:00,
2013-02-01 01:21:00,11.0,5.0,-100.00,NNE,31,4.0,7.0,75,0.00,,,0.02,0.000000,,2013-02-01 08:21:00,
2013-02-01 01:32:00,11.0,5.0,-100.00,NNE,31,4.0,7.0,75,0.00,,,0.02,0.000000,,2013-02-01 08:32:00,
2013-02-01 01:42:00,11.0,5.0,-100.00,NNE,31,4.0,7.0,75,0.00,,,0.02,0.000000,,2013-02-01 08:42:00,
2013-02-01 01:52:00,11.0,5.0,-100.00,NNE,31,4.0,7.0,75,0.00,,,0.02,0.000000,,2013-02-01 08:52:00,
2013-02-01 02:21:00,8.0,1.0,-100.00,North,354,4.0,8.0,71,0.00,,,0.02,0.000000,,2013-02-01 09:21:00,
2013-02-01 02:32:00,8.0,1.0,-100.00,North,354,4.0,8.0,71,0.00,,,0.02,0.000000,,2013-02-01 09:32:00,
2013-02-01 02:41:00,8.0,1.0,-100.00,North,354,4.0,8.0,71,0.00,,,0.02,0.000000,,2013-02-01 09:41:00,
2013-02-01 02:51:00,8.0,1.0,-100.00,North,354,4.0,8.0,71,0.00,,,0.02,0.000000,,2013-02-01 09:51:00,
2013-02-01 03:21:00,3.0,-2.0,-100.00,NE,56,6.0,8.0,78,0.00,,,0.02,0.000000,,2013-02-01 10:21:00,
2013-02-01 03:32:00,3.0,-2.0,-100.00,NE,56,6.0,8.0,78,0.00,,,0.02,0.000000,,2013-02-01 10:32:00,
2013-02-01 03:42:00,3.0,-2.0,-100.00,NE,56,6.0,8.0,78,0.00,,,0.02,0.000000,,2013-02-01 10:42:00,
2013-02-01 03:52:00,3.0,-2.0,-100.00,NE,56,6.0,8.0,78,0.00,,,0.02,0.000000,,2013-02-01 10:52:00,
2013-02-01 04:22:00,3.0,-3.0,-100.00,NE,55,6.0,8.0,76,-99.99,,,0.02,0.000000,,2013-02-01 11:22:00,
2013-02-01 04:32:00,3.0,-3.0,-100.00,NE,55,6.0,8.0,76,-99.99,,,0.02,0.000000,,2013-02-01 11:32:00,
2013-02-01 04:42:00,3.0,-3.0,-100.00,NE,55,6.0,8.0,76,-99.99,,,0.02,0.000000,,2013-02-01 11:42:00,
2013-02-01 04:53:00,3.0,-3.0,-100.00,NE,55,6.0,8.0,76,-99.99,,,0.02,0.000000,,2013-02-01 11:53:00,
2013-02-01 05:22:00,3.0,-3.0,-100.00,ENE,64,8.0,10.0,76,-99.99,,,-99.99,0.000000,,2013-02-01 12:22:00,
2013-02-01 05:32:00,3.0,-3.0,-100.00,ENE,64,8.0,10.0,76,-99.99,,,-99.99,0.000000,,2013-02-01 12:32:00,
2013-02-01 05:42:00,3.0,-3.0,-100.00,ENE,64,8.0,10.0,76,-99.99,,,-99.99,0.000000,,2013-02-01 12:42:00,
2013-02-01 05:52:00,3.0,-3.0,-100.00,ENE,64,8.0,10.0,76,-99.99,,,-99.99,0.000000,,2013-02-01 12:52:00,
2013-02-01 06:22:00,0.0,-5.0,-100.00,ENE,57,7.0,11.0,77,-99.99,,,0.02,0.000000,,2013-02-01 13:22:00,
2013-02-01 06:42:00,0.0,-5.0,-100.00,ENE,57,7.0,11.0,77,-99.99,,,0.02,0.000000,,2013-02-01 13:42:00,
2013-02-01 06:52:00,0.0,-5.0,-100.00,ENE,57,7.0,11.0,77,-99.99,,,0.02,0.000000,,2013-02-01 13:52:00,
2013-02-01 07:21:00,5.0,-1.0,-100.00,NE,54,8.0,11.0,76,-99.99,,,0.02,0.000000,,2013-02-01 14:21:00,
2013-02-01 07:32:00,5.0,-1.0,-100.00,NE,54,8.0,11.0,76,-99.99,,,0.02,0.000000,,2013-02-01 14:32:00,
2013-02-01 07:42:00,5.0,-1.0,-100.00,NE,54,8.0,11.0,76,-99.99,,,0.02,0.000000,,2013-02-01 14:42:00,
2013-02-01 07:52:00,5.0,-1.0,-100.00,NE,54,8.0,11.0,76,-99.99,,,0.02,0.000000,,2013-02-01 14:52:00,
2013-02-01 08:22:00,5.0,-3.0,-100.00,ENE,60,5.0,8.0,68,-99.99,,,0.02,41.000000,,2013-02-01 15:22:00,
2013-02-01 08:33:00,5.0,-3.0,-100.00,ENE,60,5.0,8.0,68,-99.99,,,0.02,41.000000,,2013-02-01 15:33:00,
2013-02-01 08:42:00,5.0,-3.0,-100.00,ENE,60,5.0,8.0,68,-99.99,,,0.02,41.000000,,2013-02-01 15:42:00,
2013-02-01 08:52:00,5.0,-3.0,-100.00,ENE,60,5.0,8.0,68,-99.99,,,0.02,41.000000,,2013-02-01 15:52:00,
2013-02-01 09:22:00,22.0,4.0,-100.00,NW,316,3.0,5.0,45,0.00,,,0.02,250.000000,,2013-02-01 16:22:00,
2013-02-01 09:43:00,22.0,4.0,-100.00,NW,316,3.0,5.0,45,0.00,,,0.02,250.000000,,2013-02-01 16:43:00,
2013-02-01 09:52:00,22.0,4.0,-100.00,NW,316,3.0,5.0,45,0.00,,,0.02,250.000000,,2013-02-01 16:52:00,
2013-02-01 10:22:00,29.0,4.0,-100.00,WNW,296,3.0,7.0,33,0.00,,,0.02,433.000000,,2013-02-01 17:22:00,
2013-02-01 10:42:00,29.0,4.0,-100.00,WNW,296,3.0,7.0,33,0.00,,,0.02,433.000000,,2013-02-01 17:42:00,
2013-02-01 10:52:00,29.0,4.0,-100.00,WNW,296,3.0,7.0,33,0.00,,,0.02,433.000000,,2013-02-01 17:52:00,
2013-02-01 11:22:00,36.0,4.0,-100.00,SW,235,4.0,7.0,25,0.01,,,0.02,604.000000,,2013-02-01 18:22:00,
2013-02-01 11:32:00,36.0,4.0,-100.00,SW,235,4.0,7.0,25,0.01,,,0.02,604.000000,,2013-02-01 18:32:00,
2013-02-01 12:21:00,35.0,3.0,-100.00,SW,229,7.0,12.0,25,0.01,,,0.02,709.000000,,2013-02-01 19:21:00,
2013-02-01 12:32:00,35.0,3.0,-100.00,SW,229,7.0,12.0,25,0.01,,,0.02,709.000000,,2013-02-01 19:32:00,
2013-02-01 12:42:00,35.0,3.0,-100.00,SW,229,7.0,12.0,25,0.01,,,0.02,709.000000,,2013-02-01 19:42:00,
2013-02-01 12:51:00,35.0,3.0,-100.00,SW,229,7.0,12.0,25,0.01,,,0.02,709.000000,,2013-02-01 19:51:00,
2013-02-01 13:21:00,35.0,-2.0,-100.00,WSW,252,11.0,17.0,20,0.00,,,0.02,742.000000,,2013-02-01 20:21:00,
2013-02-01 13:32:00,35.0,-2.0,-100.00,WSW,252,11.0,17.0,20,0.00,,,0.02,742.000000,,2013-02-01 20:32:00,
2013-02-01 13:42:00,35.0,-2.0,-100.00,WSW,252,11.0,17.0,20,0.00,,,0.02,742.000000,,2013-02-01 20:42:00,
2013-02-01 13:52:00,35.0,-2.0,-100.00,WSW,252,11.0,17.0,20,0.00,,,0.02,742.000000,,2013-02-01 20:52:00,
2013-02-01 14:21:00,37.0,-3.0,-100.00,West,269,7.0,17.0,18,0.00,,,0.02,703.000000,,2013-02-01 21:21:00,
2013-02-01 14:32:00,37.0,-3.0,-100.00,West,269,7.0,17.0,18,0.00,,,0.02,703.000000,,2013-02-01 21:32:00,
2013-02-01 15:21:00,35.0,-3.0,-100.00,West,277,10.0,17.0,19,0.00,,,0.02,592.000000,,2013-02-01 22:21:00,
2013-02-01 16:11:00,34.0,-3.0,-100.00,WSW,257,11.0,22.0,20,0.00,,,0.02,421.000000,,2013-02-01 23:11:00,
2013-02-01 16:21:00,34.0,-3.0,-100.00,WSW,257,11.0,22.0,20,0.00,,,0.02,421.000000,,2013-02-01 23:21:00,
2013-02-01 16:32:00,34.0,-3.0,-100.00,WSW,257,11.0,22.0,20,0.00,,,0.02,421.000000,,2013-02-01 23:32:00,
2013-02-01 17:21:00,31.0,-2.0,-100.00,SW,233,9.0,19.0,24,0.00,,,0.02,212.000000,,2013-02-02 00:21:00,
2013-02-01 17:32:00,31.0,-2.0,-100.00,SW,233,9.0,19.0,24,0.00,,,0.02,212.000000,,2013-02-02 00:32:00,
2013-02-01 17:42:00,31.0,-2.0,-100.00,SW,233,9.0,19.0,24,0.00,,,0.02,212.000000,,2013-02-02 00:42:00,
2013-02-01 17:52:00,31.0,-2.0,-100.00,SW,233,9.0,19.0,24,0.00,,,0.02,212.000000,,2013-02-02 00:52:00,
2013-02-01 18:11:00,26.0,-1.0,-100.00,WNW,287,5.0,18.0,30,0.00,,,0.02,12.000000,,2013-02-02 01:11:00,
2013-02-01 18:21:00,26.0,-1.0,-100.00,WNW,287,5.0,18.0,30,0.00,,,0.02,12.000000,,2013-02-02 01:21:00,
2013-02-01 18:32:00,26.0,-1.0,-100.00,WNW,287,5.0,18.0,30,0.00,,,0.02,12.000000,,2013-02-02 01:32:00,
2013-02-01 18:42:00,26.0,-1.0,-100.00,WNW,287,5.0,18.0,30,0.00,,,0.02,12.000000,,2013-02-02 01:42:00,
2013-02-01 18:52:00,26.0,-1.0,-100.00,WNW,287,5.0,18.0,30,0.00,,,0.02,12.000000,,2013-02-02 01:52:00,
2013-02-01 19:21:00,23.0,-1.0,-100.00,West,274,4.0,8.0,35,0.00,,,0.02,0.000000,,2013-02-02 02:21:00,
2013-02-01 19:32:00,23.0,-1.0,-100.00,West,274,4.0,8.0,35,0.00,,,0.02,0.000000,,2013-02-02 02:32:00,
2013-02-01 19:42:00,23.0,-1.0,-100.00,West,274,4.0,8.0,35,0.00,,,0.02,0.000000,,2013-02-02 02:42:00,
2013-02-01 19:52:00,23.0,-1.0,-100.00,West,274,4.0,8.0,35,0.00,,,0.02,0.000000,,2013-02-02 02:52:00,
2013-02-01 20:22:00,17.0,-1.0,-100.00,NE,48,3.0,6.0,45,0.00,,,0.02,0.000000,,2013-02-02 03:22:00,
2013-02-01 20:32:00,17.0,-1.0,-100.00,NE,48,3.0,6.0,45,0.00,,,0.02,0.000000,,2013-02-02 03:32:00,
2013-02-01 20:42:00,17.0,-1.0,-100.00,NE,48,3.0,6.0,45,0.00,,,0.02,0.000000,,2013-02-02 03:42:00,
2013-02-01 20:52:00,17.0,-1.0,-100.00,NE,48,3.0,6.0,45,0.00,,,0.02,0.000000,,2013-02-02 03:52:00,
2013-02-01 21:21:00,20.0,-3.0,-100.00,NNW,329,6.0,10.0,36,0.00,,,0.02,0.000000,,2013-02-02 04:21:00,
2013-02-01 21:32:00,20.0,-3.0,-100.00,NNW,329,6.0,10.0,36,0.00,,,0.02,0.000000,,2013-02-02 04:32:00,
2013-02-01 21:42:00,20.0,-3.0,-100.00,NNW,329,6.0,10.0,36,0.00,,,0.02,0.000000,,2013-02-02 04:42:00,
2013-02-01 21:51:00,20.0,-3.0,-100.00,NNW,329,6.0,10.0,36,0.00,,,0.02,0.000000,,2013-02-02 04:51:00,
2013-02-01 22:22:00,20.0,-2.0,-100.00,WNW,300,5.0,10.0,37,0.00,,,0.02,0.000000,,2013-02-02 05:22:00,
2013-02-01 22:33:00,20.0,-2.0,-100.00,WNW,300,5.0,10.0,37,0.00,,,0.02,0.000000,,2013-02-02 05:33:00,
2013-02-01 22:41:00,20.0,-2.0,-100.00,WNW,300,5.0,10.0,37,0.00,,,0.02,0.000000,,2013-02-02 05:41:00,
2013-02-01 22:52:00,20.0,-2.0,-100.00,WNW,300,5.0,10.0,37,0.00,,,0.02,0.000000,,2013-02-02 05:52:00,
2013-02-01 23:22:00,19.0,-1.0,-100.00,NW,307,7.0,12.0,41,0.00,,,0.02,0.000000,,2013-02-02 06:22:00,
2013-02-01 23:32:00,19.0,-1.0,-100.00,NW,307,7.0,12.0,41,0.00,,,0.02,0.000000,,2013-02-02 06:32:00,
2013-02-01 23:41:00,19.0,-1.0,-100.00,NW,307,7.0,12.0,41,0.00,,,0.02,0.000000,,2013-02-02 06:41:00,
2013-02-01 23:51:00,19.0,-1.0,-100.00,NW,307,7.0,12.0,41,0.00,,,0.02,0.000000,,2013-02-02 06:51:00,